Pagina principale
METAR-TAF:

METAR-TAF

Aeroporti :

Grenchen, Svizzera

latitudine: 47-10-53N, longitudine: 007-24-59E, altezza: 430 m

Osservazione

Il bollettino è stato emesso 33 minuti fa, alle 14:20 UTC
Vento 11 kt da est/nord-est, variando fra nord-est e est/sud-est
Temperature 29°C
Umidità 23%
Pressione 1014 hPa
Visibilità 10 km o più
nessuna nube inferiore a 1500 m e nessun cumulonembo

METAR: LSZG 131420Z 07011KT 040V110 CAVOK 29/06 Q1014

Ora: 16:53 (14:53 UTC)

Previsione

Il bollettino è stato emesso 3 ore e 28 minuti fa, alle 11:25 UTC
Previsione valida dal 13 alle 12 UTC al 13 alle 21 UTC
Vento 11 kt da est
Visibilità 10 km o più
nessuna nube inferiore a 1500 m e nessun cumulonembo
Temporaneamente
dal 13 alle 12 UTC al 13 alle 17 UTC
Vento 13 kt da est con raffiche fino a 23 kt

TAF: LSZG 131125Z 1312/1321 09011KT CAVOK TEMPO 1312/1317 09013G23KT

Osservazioni e previsioni meteorologiche di più di 4000 aeroporti (messaggi METAR e TAF).

Le stazioni disponibili sono rappresentate dai dischi gialli e rossi sulla carta.

Puntare il mouse per vedere il nome della stazione.

Clicca sopra per visualizzare le osservazioni e previsioni meteorologiche.

Per cambiare la mappa : fare clic sui pulsanti verdi con una croce nera per ingrandire, il pulsante verde con un trattino per diminuire, o sulla freccia verde per le mappe adiacenti.


METAR-TAF: